National Weather Service United States Department of Commerce

Dangerous Heat Continues in the South; Severe Thunderstorms in the Plains

Heat Advisories and Excessive Heat Warnings continue through Monday across much of the southern U.S. with some locations seeing the excessive heat lingering into Tuesday. Many locations from Arizona to Texas will experience high temperatures above 110 degrees with records likely. Severe thunderstorms may bring large hail and damaging winds over the central and northern Plains Monday. Read More >

  Select Oklahoma Tornado statistics by Year for the period 1950 to the present year from the menus below.
 
Tornadoes by Month
Jan Feb Mar Apr May Jun Jul Aug Sep Oct Nov Dec Total
0 0 6 3 29 5 1 5 0 1 0 0 50
 
Tornadoes by Intensity
F? F0 F1 F2 F3 F4 F5 Total
0 31 13 5 1 0 0 50
 
Tornado
Number
Date Time
(CST)
Length
of Path
(miles)
Width
of Path
(yards)
F-Scale Killed Injured County Location
1 03/23/2007 1611-1614 1.4 440 EF0 0 0 Texas 3 SW - 2 WSW Adams
2 03/28/2007 1816-1854 22 150 EF2 2 0 Lipscomb TX/ Beaver 5 E Booker TX - 7 E Elmwood
3 03/28/2007 1904-1921 6 100 EF2 0 0 Beaver 9 SE - 8 E Beaver
4 03/29/2007 1405-1410 2.3 20 EF1 0 0 Blaine 1.8 SE - 2.5 E Okeene
5 03/29/2007 1505-1525 7.5 50 EF2 0 5 Canadian NW OKC: near NW 39th/Sara (2 E Yukon) - N of Memorial Road / Morgan Road (3.5 ESE Piedmont)
6 03/29/2007 1520-1530 3 20 EF0 0 0 Garfield/ Grant 3 W Hillsdale - 4 SSE Nash
7 04/23/2007 1714 0.2 30 EF0 0 0 Harper 8 SSW Buffalo
8 04/23/2007 1751 0.2 30 EF0 0 0 Harper 4 NE Laverne
9 04/24/2007 1427-1435 5.5 100 EF0 0 0 Osage 6 WNW - 6 NW Pawhuska
10 05/04/2007 1721-1745 4 50 EF1 0 0 Ellis 4 SW - 3 WNW Arnett
11 05/04/2007 1745 0.2 30 EF0 0 0 Ellis 5 ENE Arnett
12 05/05/2007 1840-1842 0.8 100 EF0 0 0 Roger Mills 7 ENE Reydon
13 05/05/2007 1903 0.3 40 EF0 0 0 Roger Mills 1 NE Crawford
14 05/05/2007 1904-1926 8 150 EF3 0 1 Beckham/ Roger Mills 2.5 S Sweetwater - Sweetwater - 5 N Sweetwater
15 05/05/2007 1916-1933 5 200 EF0 0 0 Roger Mills/ Ellis 4 N Crawford - 13 S Arnett
16 05/05/2007 1932-1951 8.5 300 EF1 0 0 Roger Mills 1.5 SW Dempsey - 8.5 W Cheyenne
17 05/05/2007 1939 0.3 30 EF0 0 0 Ellis 10 SSE Arnett
18 05/05/2007 1956-2007 2 50 EF0 0 0 Ellis 1.5 SE - 2 NE Arnett
19 05/05/2007 2005-2028 7.5 500 EF1 0 0 Roger Mills 6 SW - 2.5 NW Roll
20 05/05/2007 2034-2058 8 300 EF2 0 1 Roger Mills/ Ellis 4.5 NNE Roll - 17 SSW Harmon
21 05/05/2007 2150-2230 17 600 EF2 0 0 Ellis/ Dewey/ Woodward 9 ESE Harmon - 6 ENE Sharon
22 05/06/2007 2023 0.2 20 EF0 0 0 Seminole 2 ENE Seminole
23 05/06/2007 2038 0.2 20 EF0 0 0 Seminole 2 E Little
24 05/07/2007 0132-0133 1.5 30 EF0 0 0 Oklahoma Oklahoma City (NE 36th/MLK - NE 50th/I-35) [1.7 WNW - 1.6 NNW Forest Park]
25 05/07/2007 0215 0.1 20 EF0 0 0 Pottwatomie 2 WSW Dale
26 05/08/2007 1915 0.2 30 EF0 0 0 Comanche 3 W Lake Ellsworth
27 05/08/2007 2154-2158 1.5 30 EF1 0 0 Grady 2.7 SW - 2.6 W Minco
28 05/08/2007 2226-2230 2.2 40 EF0 0 0 Canadian 2.4 W - 3.8 NW Union City
29 05/08/2007 2243-2250 1.75 150 EF1 0 0 Canadian El Reno (just SW of I-40/US-81 - just S of Choctaw Rd/Elm Rd. [2.5 SSE - 1 S El Reno]
30 05/ 8/2007 2308 0.6 80 EF1 0 0 Canadian 5 WSW Piedmont
31 05/08/2007 2321 0.2 30 EF1 0 0 Canadian 3 NNW Piedmont
32 05/31/2007 1755 0.1 100 EF0 0 0 Cimarron 3 NNE Keyes
33 05/31/2007 1811-1812 0.3 100 EF0 0 0 Cimarron 2.1 NNE Sturgis
34 05/31/2007 1842 0.1 50 EF0 0 0 Texas 5 NNW Eva
35 05/31/2007 1849 0.1 75 EF0 0 0 Texas 5 ENE Eva
36 05/31/2007 1858-1900 0.5 150 EF0 0 0 Texas 13 NW - 13.5 NW Guymon
37 05/31/2007 1906-1917 5 300 EF1 0 0 Texas 11 WSW - 7 SW Hough
38 05/31/2007 1924-1925 0.1 75 EF0 0 0 Texas 5 WNW Guymon
39 06/13/2007 1731-1733 0.2 25 EF0 0 0 Major 5 W Orienta
40 06/13/2007 1734-1736 0.2 75 EF0 0 0 Major 5 W Orienta
41 06/13/2007 1742-1744 0.2 50 EF0 0 0 Major 5 W Orienta
42 06/13/2007 1906 0.1 30 EF0 0 0 Blaine 2 WSW Eagle City
43 06/19/2007 2038-2045 2.2 50 EF0 0 0 Texas 1 NNE - 2 ESE Baker
44 07/ 9/2007 1515-1517 0.25 50 EF1 0 0 Muskogee 3 E Warner
45 08/18/2007 1546-1557 6 50 EF1 0 0 Kiowa 5.5 ESE Hobart - 6 NE Hobart
46 08/18/2007 1610-1620 4 30 EF0 0 0 Washita 10 SSE - 6 SSE Cordell
47 08/18/2007 1944-1948 2 30 EF1 0 0 Grady 2.5 SSW Norge - 1.8 E Laverty
48 08/19/2007 0100-0106 3 30 EF0 0 0 Caddo/ Canadian 1.7 ENE Cogar - 9 W Union City
49 08/19/2007 0132-0138 7 75 EF1 0 0 Grady/ Canadian 1 ESE Minco - 1 N Union City
50 10/17/2007 1614 0.1 50 EF0 0 0 Choctaw 3 NE Fort Towson